Time;durP1;ratioP1;P1;durP2;ratioP2;P2;SDS_P1;SDS_P2;PMS_P1;PMS_P2;Temp;Humidity;BMP_temperature;BMP_pressure;BME280_temperature;BME280_humidity;BME280_pressure;Samples;Min_cycle;Max_cycle;Signal;HPM_P1;HPM_P2
2022/10/25 00:01:15;;;;;;;;;;;;;;;18.34;63.30;99921.41;4297574;33;19985;-96
2022/10/25 00:03:42;;;;;;;;;;;;;;;18.26;63.58;99931.16;4299559;33;19984;-96
2022/10/25 00:06:09;;;;;;;;;;;;;;;18.11;64.05;99927.84;4304825;33;20240;-92
2022/10/25 00:08:36;;;;;;;;;;;;;;;18.35;63.19;99933.66;4311863;33;19995;-95
2022/10/25 00:11:04;;;;;;;;;;;;;;;18.34;63.17;99942.38;4297820;33;19984;-90
2022/10/25 00:13:30;;;;;;;;;;;;;;;18.37;63.10;99950.19;4307198;33;20362;-95
2022/10/25 00:15:57;;;;;;;;;;;;;;;18.22;63.49;99964.41;4296584;33;20341;-93
2022/10/25 00:18:24;;;;;;;;;;;;;;;18.33;63.15;99969.50;4297049;33;19984;-93
2022/10/25 00:20:51;;;;;;;;;;;;;;;18.35;63.05;99967.72;4299157;33;20322;-96
2022/10/25 00:23:18;;;;;;;;;;;;;;;18.28;63.16;99964.31;4302358;33;19999;-94
2022/10/25 00:25:45;;;;;;;;;;;;;;;18.17;63.67;99967.97;4301059;33;19992;-93
2022/10/25 00:28:11;;;;;;;;;;;;;;;18.34;63.27;99950.25;4301931;33;20377;-95
2022/10/25 00:30:38;;;;;;;;;;;;;;;18.31;63.50;99950.28;4314467;33;20049;-95
2022/10/25 00:33:06;;;;;;;;;;;;;;;18.24;63.77;99969.59;4299142;33;19994;-93
2022/10/25 00:35:34;;;;;;;;;;;;;;;18.39;63.42;99958.91;4298512;33;19992;-96
2022/10/25 00:38:01;;;;;;;;;;;;;;;18.35;63.60;99962.47;4298353;33;20252;-88
2022/10/25 00:40:28;;;;;;;;;;;;;;;18.33;63.77;99959.00;4299604;33;20007;-95
2022/10/25 00:42:55;;;;;;;;;;;;;;;18.48;63.23;99964.03;4317446;33;19997;-96
2022/10/25 00:45:27;;;;;;;;;;;;;;;18.40;63.54;99958.03;4316480;33;19976;-96
2022/10/25 00:47:59;;;;;;;;;;;;;;;18.28;64.07;99960.81;4317182;33;19984;-94
2022/10/25 00:50:32;;;;;;;;;;;;;;;18.29;64.35;99978.28;4311315;33;19991;-92
2022/10/25 00:53:04;;;;;;;;;;;;;;;18.38;63.84;99967.69;4312902;33;20039;-94
2022/10/25 00:55:31;;;;;;;;;;;;;;;18.41;63.81;99965.03;4327517;33;19996;-94
2022/10/25 00:58:03;;;;;;;;;;;;;;;18.42;63.86;99969.38;4303170;33;20397;-90
2022/10/25 01:00:30;;;;;;;;;;;;;;;18.30;64.32;99980.00;4321799;33;19991;-93
2022/10/25 01:02:57;;;;;;;;;;;;;;;18.36;64.11;99979.94;4312483;33;20039;-92
2022/10/25 01:05:24;;;;;;;;;;;;;;;18.45;63.79;99982.44;4311841;33;20381;-93
2022/10/25 01:07:51;;;;;;;;;;;;;;;18.35;64.07;99988.69;4301310;33;19984;-89
2022/10/25 01:10:17;;;;;;;;;;;;;;;18.39;63.77;99990.38;4322745;33;19992;-92
2022/10/25 01:12:44;;;;;;;;;;;;;;;18.30;64.21;99990.50;4306748;33;20015;-89
2022/10/25 01:15:16;;;;;;;;;;;;;;;18.25;64.34;99987.06;4307593;33;19995;-90
2022/10/25 01:17:50;;;;;;;;;;;;;;;18.07;64.97;99982.94;4311859;33;20039;-92
2022/10/25 01:20:35;;;;;;;;;;;;;;;18.05;65.09;99988.16;4310228;33;19976;-93
2022/10/25 01:23:01;;;;;;;;;;;;;;;18.16;64.72;99974.97;4309134;33;19985;-93
2022/10/25 01:25:47;;;;;;;;;;;;;;;18.01;65.28;99968.16;4305000;33;19976;-93
2022/10/25 01:28:20;;;;;;;;;;;;;;;18.08;65.10;99975.03;4314413;33;19992;-93
2022/10/25 01:30:53;;;;;;;;;;;;;;;18.16;64.76;99966.25;4307946;33;19999;-95
2022/10/25 01:33:20;;;;;;;;;;;;;;;18.06;65.05;99961.09;4303069;33;19988;-95
2022/10/25 01:35:59;;;;;;;;;;;;;;;18.00;65.44;99971.66;4311394;33;20002;-94
2022/10/25 01:38:28;;;;;;;;;;;;;;;17.99;65.61;99964.66;4321949;33;19988;-94
2022/10/25 01:41:10;;;;;;;;;;;;;;;18.04;65.68;99962.87;4320196;33;20818;-93
2022/10/25 01:43:50;;;;;;;;;;;;;;;18.18;65.19;99959.19;4336476;33;19952;-95
2022/10/25 01:46:20;;;;;;;;;;;;;;;18.12;65.49;99968.91;4338186;33;19983;-96
2022/10/25 01:48:49;;;;;;;;;;;;;;;18.17;65.40;99967.97;4318789;33;20050;-96
2022/10/25 01:51:16;;;;;;;;;;;;;;;18.22;65.34;99961.78;4312391;33;19988;-96
2022/10/25 01:53:44;;;;;;;;;;;;;;;17.99;66.27;99975.16;4305020;33;19949;-95
2022/10/25 01:56:13;;;;;;;;;;;;;;;18.27;65.28;99964.31;4300057;33;19997;-95
2022/10/25 01:59:09;;;;;;;;;;;;;;;18.27;65.49;99964.31;4299229;33;19988;-93
2022/10/25 02:01:42;;;;;;;;;;;;;;;18.33;65.21;99953.75;4303996;33;19975;-93
2022/10/25 02:04:17;;;;;;;;;;;;;;;18.23;65.72;99952.16;4306654;33;20007;-94
2022/10/25 02:06:44;;;;;;;;;;;;;;;18.29;65.70;99946.84;4295889;33;20036;-94
2022/10/25 02:09:26;;;;;;;;;;;;;;;18.34;65.56;99951.09;4305056;33;19967;-94
2022/10/25 02:11:53;;;;;;;;;;;;;;;18.11;66.42;99954.03;4334566;33;19997;-95
2022/10/25 02:14:21;;;;;;;;;;;;;;;18.06;66.49;99958.50;4312002;33;19988;-96
2022/10/25 02:16:54;;;;;;;;;;;;;;;17.66;68.32;99953.66;4297850;33;20391;-96
2022/10/25 02:19:29;;;;;;;;;;;;;;;18.13;66.56;99956.66;4304511;33;19969;-96
2022/10/25 02:21:55;;;;;;;;;;;;;;;18.27;66.01;99959.09;4302943;33;19980;-95
2022/10/25 02:24:25;;;;;;;;;;;;;;;18.20;66.31;99965.31;4290221;33;19996;-94
2022/10/25 02:26:52;;;;;;;;;;;;;;;18.47;65.23;99962.28;4306756;33;19998;-96
2022/10/25 02:29:18;;;;;;;;;;;;;;;18.37;65.62;99955.44;4302879;33;19989;-96
2022/10/25 02:31:45;;;;;;;;;;;;;;;18.34;65.76;99958.09;4288155;33;20052;-92
2022/10/25 02:34:12;;;;;;;;;;;;;;;18.47;65.38;99946.56;4299877;33;19968;-93
2022/10/25 02:36:39;;;;;;;;;;;;;;;18.29;66.12;99941.59;4315511;33;19972;-93
2022/10/25 02:39:06;;;;;;;;;;;;;;;18.32;65.97;99933.69;4361694;33;21682;-95
2022/10/25 02:41:33;;;;;;;;;;;;;;;18.46;65.62;99934.34;4361005;33;19968;-92
2022/10/25 02:43:59;;;;;;;;;;;;;;;18.38;65.92;99944.09;4351284;33;19983;-94
2022/10/25 02:46:26;;;;;;;;;;;;;;;18.33;66.18;99944.12;4342652;33;20509;-95
2022/10/25 02:48:53;;;;;;;;;;;;;;;18.23;66.53;99953.03;4347058;33;20030;-96
2022/10/25 02:51:21;;;;;;;;;;;;;;;18.19;66.74;99963.53;4345331;33;19964;-94
2022/10/25 02:53:48;;;;;;;;;;;;;;;18.19;66.68;99963.53;4336342;33;19987;-94
2022/10/25 02:56:16;;;;;;;;;;;;;;;18.27;66.62;99953.84;4340294;33;21050;-96
2022/10/25 02:58:43;;;;;;;;;;;;;;;18.12;67.10;99955.78;4346162;33;19964;-96
2022/10/25 03:01:10;;;;;;;;;;;;;;;18.23;67.10;99962.66;4342821;33;20885;-83
2022/10/25 03:03:37;;;;;;;;;;;;;;;18.26;67.05;99971.31;4338655;33;20004;-93
2022/10/25 03:06:04;;;;;;;;;;;;;;;18.21;67.19;99959.16;4342216;33;19976;-96
2022/10/25 03:08:31;;;;;;;;;;;;;;;18.18;67.54;99961.81;4328746;33;19995;-91
2022/10/25 03:10:58;;;;;;;;;;;;;;;18.24;67.33;99964.38;4330488;33;20031;-96
2022/10/25 03:13:24;;;;;;;;;;;;;;;18.08;67.82;99969.78;4345326;32;20341;-93
2022/10/25 03:15:52;;;;;;;;;;;;;;;18.17;67.48;99973.19;4337194;33;19998;-91
2022/10/25 03:18:18;;;;;;;;;;;;;;;18.28;66.87;99976.53;4340493;33;19980;-95
2022/10/25 03:20:45;;;;;;;;;;;;;;;18.34;66.59;99976.44;4344408;33;20062;-95
2022/10/25 03:23:13;;;;;;;;;;;;;;;18.46;65.93;99975.44;4339110;33;19992;-95
2022/10/25 03:25:39;;;;;;;;;;;;;;;18.15;67.05;99969.72;4332223;33;19972;-94
2022/10/25 03:28:06;;;;;;;;;;;;;;;18.33;66.39;99969.50;4339084;33;19991;-95
2022/10/25 03:30:33;;;;;;;;;;;;;;;18.32;66.27;99978.25;4347928;33;19996;-96
2022/10/25 03:33:00;;;;;;;;;;;;;;;18.24;66.47;99980.94;4333726;33;19975;-95
2022/10/25 03:35:27;;;;;;;;;;;;;;;18.26;66.42;99984.44;4354870;33;19980;-95
2022/10/25 03:37:55;;;;;;;;;;;;;;;18.25;66.38;99997.53;4344998;33;20002;-94
2022/10/25 03:40:22;;;;;;;;;;;;;;;18.40;65.63;99986.84;4336304;33;19994;-86
2022/10/25 03:42:48;;;;;;;;;;;;;;;18.28;65.94;99984.41;4336251;33;20747;-95
2022/10/25 03:45:16;;;;;;;;;;;;;;;18.24;66.22;99980.09;4331171;33;20035;-92
2022/10/25 03:47:42;;;;;;;;;;;;;;;18.07;66.89;99994.28;4329998;33;19984;-92
2022/10/25 03:50:10;;;;;;;;;;;;;;;18.03;67.04;99986.47;4331825;33;20283;-91
2022/10/25 03:52:37;;;;;;;;;;;;;;;18.08;66.80;99980.28;4332427;33;19956;-95
2022/10/25 03:55:04;;;;;;;;;;;;;;;18.21;66.22;99960.03;4331550;33;19983;-85
2022/10/25 03:57:30;;;;;;;;;;;;;;;17.96;66.97;99964.69;4342737;33;19975;-94
2022/10/25 03:59:58;;;;;;;;;;;;;;;18.12;66.55;99955.78;4345267;33;19994;-86
2022/10/25 04:02:25;;;;;;;;;;;;;;;18.06;66.66;99950.63;4336402;33;19980;-93
2022/10/25 04:04:52;;;;;;;;;;;;;;;18.23;66.01;99957.41;4333401;33;19956;-91
2022/10/25 04:07:19;;;;;;;;;;;;;;;18.00;66.90;99949.84;4328159;33;19976;-93
2022/10/25 04:09:46;;;;;;;;;;;;;;;18.04;66.58;99957.63;4333176;33;20002;-90
2022/10/25 04:12:12;;;;;;;;;;;;;;;18.23;66.07;99957.41;4333026;33;19988;-92
2022/10/25 04:14:39;;;;;;;;;;;;;;;18.27;65.88;99964.31;4326550;33;19971;-89
2022/10/25 04:17:06;;;;;;;;;;;;;;;18.22;66.01;99961.78;4332041;33;19980;-88
2022/10/25 04:19:33;;;;;;;;;;;;;;;18.04;66.57;99962.87;4329348;33;19994;-85
2022/10/25 04:22:01;;;;;;;;;;;;;;;18.22;66.21;99960.88;4331793;33;19987;-88
2022/10/25 04:24:28;;;;;;;;;;;;;;;18.25;65.97;99960.84;4329307;33;19984;-94
2022/10/25 04:26:55;;;;;;;;;;;;;;;18.32;65.66;99962.53;4334073;33;19972;-91
2022/10/25 04:29:22;;;;;;;;;;;;;;;17.94;66.85;99966.50;4326738;33;20035;-91
2022/10/25 04:31:48;;;;;;;;;;;;;;;18.07;66.54;99962.84;4335227;33;19994;-92
2022/10/25 04:34:15;;;;;;;;;;;;;;;18.29;65.73;99966.03;4329478;33;19975;-93
2022/10/25 04:36:42;;;;;;;;;;;;;;;18.13;66.30;99967.12;4334674;33;19975;-92
2022/10/25 04:39:09;;;;;;;;;;;;;;;18.13;66.37;99968.00;4335035;33;20063;-90
2022/10/25 04:41:36;;;;;;;;;;;;;;;18.36;65.44;99969.44;4326789;33;19984;-91
2022/10/25 04:44:02;;;;;;;;;;;;;;;18.46;64.94;99971.03;4326742;33;19979;-86
2022/10/25 04:46:29;;;;;;;;;;;;;;;18.23;65.66;99978.37;4326514;33;19988;-83
2022/10/25 04:48:56;;;;;;;;;;;;;;;18.38;65.31;99975.53;4326494;33;19999;-87
2022/10/25 04:51:23;;;;;;;;;;;;;;;18.27;65.63;99974.81;4326726;33;20010;-83
2022/10/25 04:53:51;;;;;;;;;;;;;;;18.27;65.76;99969.56;4328229;33;19976;-92
2022/10/25 04:56:18;;;;;;;;;;;;;;;18.21;66.02;99974.88;4333936;33;20013;-91
2022/10/25 04:58:45;;;;;;;;;;;;;;;18.01;66.59;99978.63;4334856;32;19979;-90
2022/10/25 05:01:13;;;;;;;;;;;;;;;18.07;66.29;99983.78;4333985;33;20354;-93
2022/10/25 05:03:40;;;;;;;;;;;;;;;18.33;65.39;99978.22;4325446;33;19984;-94
2022/10/25 05:06:10;;;;;;;;;;;;;;;18.37;65.18;99981.66;4318728;33;20099;-88
2022/10/25 05:08:38;;;;;;;;;;;;;;;18.28;65.46;99981.78;4342065;33;19993;-89
2022/10/25 05:11:06;;;;;;;;;;;;;;;18.41;64.95;99986.00;4339920;33;20087;-85
2022/10/25 05:13:33;;;;;;;;;;;;;;;18.50;64.49;99987.59;4325754;33;20627;-87
2022/10/25 05:16:00;;;;;;;;;;;;;;;18.23;65.40;99973.13;4329561;33;20006;-83
2022/10/25 05:18:27;;;;;;;;;;;;;;;18.36;65.04;99985.16;4324521;33;19994;-87
2022/10/25 05:20:55;;;;;;;;;;;;;;;18.44;64.58;99983.31;4324530;33;20035;-89
2022/10/25 05:23:22;;;;;;;;;;;;;;;18.30;65.01;99985.25;4330616;33;19991;-88
2022/10/25 05:26:00;;;;;;;;;;;;;;;18.37;64.54;99981.66;4312618;33;20002;-86
2022/10/25 05:28:27;;;;;;;;;;;;;;;18.34;64.56;99994.78;4328636;33;19991;-84
2022/10/25 05:30:54;;;;;;;;;;;;;;;18.48;64.00;100003.34;4331672;33;19983;-86
2022/10/25 05:33:20;;;;;;;;;;;;;;;18.46;64.16;100007.75;4325584;33;20437;-84
2022/10/25 05:35:47;;;;;;;;;;;;;;;18.47;64.12;100019.94;4330032;33;20393;-85
2022/10/25 05:38:14;;;;;;;;;;;;;;;18.45;64.28;100024.38;4329999;33;20544;-84
2022/10/25 05:40:41;;;;;;;;;;;;;;;18.47;63.99;100025.19;4325971;33;20819;-85
2022/10/25 05:43:07;;;;;;;;;;;;;;;18.52;63.72;100036.50;4330872;33;19979;-87
2022/10/25 05:45:39;;;;;;;;;;;;;;;18.38;64.04;100046.31;4163918;33;10011694;-83
2022/10/25 05:48:05;;;;;;;;;;;;;;;18.24;64.76;100053.47;4325320;33;20002;-84
2022/10/25 05:50:32;;;;;;;;;;;;;;;18.00;65.68;100068.59;4325711;33;20022;-86
2022/10/25 05:52:59;;;;;;;;;;;;;;;18.20;64.96;100073.59;4328118;33;19975;-84
2022/10/25 05:55:26;;;;;;;;;;;;;;;18.17;65.04;100083.25;4333658;33;20075;-84
2022/10/25 05:57:53;;;;;;;;;;;;;;;18.25;64.63;100081.37;4333566;33;19994;-88
2022/10/25 06:00:20;;;;;;;;;;;;;;;18.46;63.93;100072.41;4323663;33;19984;-84
2022/10/25 06:02:46;;;;;;;;;;;;;;;18.31;64.18;100066.50;4335520;33;20725;-85
2022/10/25 06:05:14;;;;;;;;;;;;;;;18.44;63.73;100077.69;4333953;33;20026;-84
2022/10/25 06:07:40;;;;;;;;;;;;;;;18.32;64.22;100067.34;4332956;33;19992;-83
2022/10/25 06:10:08;;;;;;;;;;;;;;;18.21;64.85;100079.69;4331230;33;19998;-83
2022/10/25 06:12:36;;;;;;;;;;;;;;;18.23;64.78;100077.94;4343533;32;19990;-84
2022/10/25 06:15:03;;;;;;;;;;;;;;;18.24;64.70;100090.16;4326277;33;20059;-83
2022/10/25 06:17:30;;;;;;;;;;;;;;;18.16;65.04;100097.25;4332584;33;19984;-83
2022/10/25 06:19:56;;;;;;;;;;;;;;;17.92;65.78;100098.34;4325428;33;20314;-84
2022/10/25 06:22:23;;;;;;;;;;;;;;;18.03;65.37;100107.84;4325382;33;20339;-85
2022/10/25 06:24:50;;;;;;;;;;;;;;;18.18;65.00;100111.16;4332050;33;19984;-84
2022/10/25 06:27:17;;;;;;;;;;;;;;;18.21;64.86;100116.38;4323636;33;20014;-86
2022/10/25 06:29:44;;;;;;;;;;;;;;;18.15;65.10;100116.44;4332817;33;19998;-87
2022/10/25 06:32:11;;;;;;;;;;;;;;;18.03;65.50;100123.56;4339577;33;19994;-87
2022/10/25 06:34:38;;;;;;;;;;;;;;;18.01;65.44;100129.69;4321735;33;19998;-86
2022/10/25 06:37:04;;;;;;;;;;;;;;;18.16;65.16;100133.91;4327844;33;19971;-85
2022/10/25 06:39:31;;;;;;;;;;;;;;;17.74;66.98;100129.03;4325144;33;19999;-84
2022/10/25 06:41:58;;;;;;;;;;;;;;;17.57;67.58;100131.75;4324829;33;19998;-84
2022/10/25 06:44:24;;;;;;;;;;;;;;;18.07;65.73;100119.16;4333024;33;20100;-85
2022/10/25 06:46:52;;;;;;;;;;;;;;;17.83;66.75;100120.25;4325216;33;19987;-84
2022/10/25 06:49:39;;;;;;;;;;;;;;;17.96;66.11;100121.00;4325046;33;19995;-84
2022/10/25 06:52:05;;;;;;;;;;;;;;;18.25;65.21;100128.56;4325002;33;19980;-82
2022/10/25 06:54:32;;;;;;;;;;;;;;;18.02;65.85;100124.41;4325369;33;20019;-83
2022/10/25 06:56:59;;;;;;;;;;;;;;;17.63;67.26;100123.88;4332533;33;20003;-83
2022/10/25 06:59:26;;;;;;;;;;;;;;;18.08;65.72;100115.63;4328034;33;20006;-83
2022/10/25 07:01:53;;;;;;;;;;;;;;;18.28;65.12;100118.03;4335170;33;19998;-82
2022/10/25 07:04:20;;;;;;;;;;;;;;;18.10;65.64;100113.88;4339004;33;19999;-83
2022/10/25 07:06:47;;;;;;;;;;;;;;;18.45;64.38;100113.50;4322372;33;19996;-83
2022/10/25 07:09:19;;;;;;;;;;;;;;;18.56;63.98;100119.47;4334798;33;19992;-83
2022/10/25 07:11:46;;;;;;;;;;;;;;;18.50;64.36;100109.03;4327800;33;19998;-83
2022/10/25 07:14:13;;;;;;;;;;;;;;;18.57;64.24;100121.22;4323939;33;19984;-83
2022/10/25 07:16:40;;;;;;;;;;;;;;;18.57;64.28;100131.72;4331119;33;20425;-85
2022/10/25 07:19:07;;;;;;;;;;;;;;;18.44;64.66;100114.38;4339272;33;19976;-85
2022/10/25 07:21:34;;;;;;;;;;;;;;;18.69;63.88;100119.31;4300288;33;19988;-83
2022/10/25 07:24:01;;;;;;;;;;;;;;;18.75;63.49;100121.91;4284140;33;20039;-84
2022/10/25 07:26:29;;;;;;;;;;;;;;;18.76;63.60;100131.47;4277304;33;20011;-82
2022/10/25 07:28:57;;;;;;;;;;;;;;;18.64;63.92;100126.38;4285841;33;19988;-82
2022/10/25 07:31:28;;;;;;;;;;;;;;;18.82;63.42;100136.66;4285627;33;19980;-83
2022/10/25 07:33:56;;;;;;;;;;;;;;;18.84;63.49;100141.91;4298725;33;20027;-82
2022/10/25 07:36:23;;;;;;;;;;;;;;;18.90;63.13;100134.81;4298544;33;20000;-82
2022/10/25 07:38:50;;;;;;;;;;;;;;;19.04;62.71;100127.59;4308610;33;20447;-83
2022/10/25 07:41:16;;;;;;;;;;;;;;;19.15;61.89;100140.59;4308012;33;20039;-83
2022/10/25 07:43:44;;;;;;;;;;;;;;;19.15;61.76;100144.97;4299955;33;19996;-85
2022/10/25 07:46:10;;;;;;;;;;;;;;;19.07;61.67;100141.59;4293043;33;19996;-84
2022/10/25 07:48:37;;;;;;;;;;;;;;;18.95;61.82;100153.09;4284707;33;20353;-86
2022/10/25 07:51:09;;;;;;;;;;;;;;;19.19;61.17;100152.78;4304535;33;19995;-82
2022/10/25 07:53:36;;;;;;;;;;;;;;;19.13;61.44;100147.62;4291428;33;19988;-83
2022/10/25 07:56:02;;;;;;;;;;;;;;;19.17;61.42;100149.28;4296646;33;20578;-84
2022/10/25 07:58:29;;;;;;;;;;;;;;;19.05;62.11;100154.75;4296187;33;19988;-82
2022/10/25 08:01:00;;;;;;;;;;;;;;;19.17;61.96;100161.56;4307282;33;19995;-81
2022/10/25 08:03:27;;;;;;;;;;;;;;;19.38;60.97;100163.03;4308701;33;20260;-83
2022/10/25 08:05:54;;;;;;;;;;;;;;;19.01;62.54;100169.63;4307887;33;20012;-82
2022/10/25 08:08:22;;;;;;;;;;;;;;;19.14;62.36;100159.84;4304550;33;19996;-82
2022/10/25 08:10:49;;;;;;;;;;;;;;;19.17;61.91;100158.94;4305781;33;19984;-83
2022/10/25 08:13:15;;;;;;;;;;;;;;;19.20;62.20;100159.75;4305693;33;19992;-81
2022/10/25 08:16:00;;;;;;;;;;;;;;;18.85;63.49;100157.59;4310002;33;20000;-81
2022/10/25 08:18:31;;;;;;;;;;;;;;;18.98;62.57;100153.94;4324032;33;19992;-83
2022/10/25 08:21:03;;;;;;;;;;;;;;;19.16;62.21;100157.22;4309719;33;19992;-83
2022/10/25 08:23:31;;;;;;;;;;;;;;;19.28;61.18;100152.66;4312735;33;20047;-85
2022/10/25 08:25:58;;;;;;;;;;;;;;;19.25;61.32;100151.84;4308520;33;20007;-85
2022/10/25 08:28:26;;;;;;;;;;;;;;;19.12;61.50;100150.28;4319547;33;19996;-85
2022/10/25 08:30:54;;;;;;;;;;;;;;;19.16;61.80;100157.22;4308993;33;19984;-84
2022/10/25 08:33:24;;;;;;;;;;;;;;;19.24;61.82;100157.94;4320215;33;20004;-87
2022/10/25 08:35:54;;;;;;;;;;;;;;;19.29;61.69;100153.50;4309688;33;19991;-82
2022/10/25 08:38:20;;;;;;;;;;;;;;;19.31;61.75;100151.75;4304294;33;20023;-82
2022/10/25 08:40:50;;;;;;;;;;;;;;;19.20;62.10;100167.62;4322835;33;19972;-85
2022/10/25 08:43:22;;;;;;;;;;;;;;;19.27;61.95;100165.78;4314346;33;20409;-83
2022/10/25 08:45:56;;;;;;;;;;;;;;;19.30;61.81;100165.75;4334542;33;19999;-85
2022/10/25 08:48:25;;;;;;;;;;;;;;;19.39;61.50;100159.50;4339581;33;20003;-84
2022/10/25 08:50:55;;;;;;;;;;;;;;;19.38;61.27;100174.38;4341194;33;19979;-83
2022/10/25 08:53:22;;;;;;;;;;;;;;;19.22;61.79;100178.12;4326127;33;20000;-82
2022/10/25 08:55:49;;;;;;;;;;;;;;;19.25;61.62;100178.06;4332909;33;19995;-84
2022/10/25 08:58:48;;;;;;;;;;;;;;;19.26;62.01;100182.44;4325546;33;20043;-84
2022/10/25 09:01:15;;;;;;;;;;;;;;;19.43;61.59;100176.94;4334260;33;20035;-84
2022/10/25 09:03:42;;;;;;;;;;;;;;;19.46;61.20;100185.66;4329397;33;19984;-85
2022/10/25 09:06:24;;;;;;;;;;;;;;;19.35;61.41;100184.94;4336410;32;21437;-84
2022/10/25 09:09:12;;;;;;;;;;;;;;;19.51;60.90;100183.81;4341007;33;20034;-84
2022/10/25 09:11:51;;;;;;;;;;;;;;;19.46;61.09;100188.28;4341257;33;19976;-85
2022/10/25 09:14:18;;;;;;;;;;;;;;;19.56;61.02;100188.12;4327188;33;20336;-85
2022/10/25 09:16:52;;;;;;;;;;;;;;;19.63;60.85;100195.03;4339233;33;20488;-86
2022/10/25 09:19:24;;;;;;;;;;;;;;;19.70;60.12;100180.94;4333507;33;19984;-84
2022/10/25 09:22:04;;;;;;;;;;;;;;;19.34;61.29;100188.44;4338640;33;19972;-84
2022/10/25 09:24:31;;;;;;;;;;;;;;;19.60;60.35;100190.69;4338256;33;19984;-84
2022/10/25 09:27:01;;;;;;;;;;;;;;;19.60;60.23;100195.06;4333885;33;19979;-85
2022/10/25 09:29:30;;;;;;;;;;;;;;;19.54;60.77;100195.16;4325773;33;20011;-84
2022/10/25 09:31:57;;;;;;;;;;;;;;;19.32;61.46;100189.34;4326058;33;20442;-84
2022/10/25 09:34:26;;;;;;;;;;;;;;;19.57;60.42;100182.00;4330422;33;20342;-83
2022/10/25 09:36:54;;;;;;;;;;;;;;;19.33;61.20;100186.69;4326909;33;20003;-84
2022/10/25 09:39:22;;;;;;;;;;;;;;;19.27;61.87;100192.91;4331017;33;19979;-85
2022/10/25 09:41:49;;;;;;;;;;;;;;;19.46;61.21;100193.53;4326802;33;19998;-84
2022/10/25 09:44:35;;;;;;;;;;;;;;;19.35;61.71;100190.19;4336134;33;20003;-86
2022/10/25 09:47:20;;;;;;;;;;;;;;;19.67;60.48;100196.75;4326120;33;20392;-87
2022/10/25 09:50:02;;;;;;;;;;;;;;;19.52;60.29;100190.78;4335312;33;20680;-86
2022/10/25 09:52:35;;;;;;;;;;;;;;;19.59;60.23;100188.97;4335849;33;20775;-84
2022/10/25 09:55:11;;;;;;;;;;;;;;;19.47;60.93;100199.66;4334645;33;20027;-85
2022/10/25 09:57:38;;;;;;;;;;;;;;;19.51;61.22;100207.44;4331209;33;20401;-84
2022/10/25 10:00:05;;;;;;;;;;;;;;;19.65;61.04;100203.78;3726970;33;5011489;-84
2022/10/25 10:02:37;;;;;;;;;;;;;;;19.82;60.07;100201.75;4324182;33;19979;-84
2022/10/25 10:05:05;;;;;;;;;;;;;;;19.83;60.08;100208.75;4333229;33;19972;-84
2022/10/25 10:07:34;;;;;;;;;;;;;;;19.93;59.69;100205.06;4312963;33;20000;-84
2022/10/25 10:10:02;;;;;;;;;;;;;;;19.52;60.87;100214.41;4333178;33;19983;-84
2022/10/25 10:12:29;;;;;;;;;;;;;;;19.60;60.61;100210.84;4324806;33;19997;-84
2022/10/25 10:14:57;;;;;;;;;;;;;;;19.83;60.12;100207.88;4326231;33;19994;-85
2022/10/25 10:17:24;;;;;;;;;;;;;;;19.58;60.70;100209.97;4332050;33;19995;-86
2022/10/25 10:20:08;;;;;;;;;;;;;;;19.32;62.34;100216.47;4333340;32;19995;-84
2022/10/25 10:22:43;;;;;;;;;;;;;;;19.53;61.42;100215.31;4329823;33;19976;-87
2022/10/25 10:25:14;;;;;;;;;;;;;;;19.60;61.29;100213.47;4331252;33;19984;-84
2022/10/25 10:27:41;;;;;;;;;;;;;;;19.82;60.25;100199.13;4334891;33;19968;-84
2022/10/25 10:30:07;;;;;;;;;;;;;;;19.87;60.13;100199.91;4333818;33;20006;-84
2022/10/25 10:32:35;;;;;;;;;;;;;;;19.88;59.83;100201.66;4327887;33;20017;-86
2022/10/25 10:35:04;;;;;;;;;;;;;;;19.78;60.39;100207.94;4336319;33;19994;-86
2022/10/25 10:37:31;;;;;;;;;;;;;;;19.72;60.84;100203.66;4338932;33;20277;-86
2022/10/25 10:40:07;;;;;;;;;;;;;;;19.78;60.53;100197.44;4340840;33;19987;-87
2022/10/25 10:42:35;;;;;;;;;;;;;;;19.97;59.82;100196.25;4337895;33;20415;-86
2022/10/25 10:45:08;;;;;;;;;;;;;;;20.11;59.23;100203.91;4330775;33;19984;-85
2022/10/25 10:47:35;;;;;;;;;;;;;;;20.16;58.81;100195.94;4339241;33;20001;-86
2022/10/25 10:50:08;;;;;;;;;;;;;;;19.97;59.31;100205.88;4339475;33;20026;-86
2022/10/25 10:52:42;;;;;;;;;;;;;;;19.68;60.50;100194.06;4340333;33;19984;-85
2022/10/25 10:55:17;;;;;;;;;;;;;;;19.96;59.56;100199.75;4339089;33;20014;-88
2022/10/25 10:57:43;;;;;;;;;;;;;;;19.79;61.00;100211.47;4340300;33;20038;-85
2022/10/25 11:00:24;;;;;;;;;;;;;;;19.71;60.38;100208.94;4333909;33;19992;-86
2022/10/25 11:02:51;;;;;;;;;;;;;;;19.97;59.46;100217.28;4325826;33;20482;-88
2022/10/25 11:05:19;;;;;;;;;;;;;;;20.13;58.77;100217.00;4328649;33;20038;-89
2022/10/25 11:07:51;;;;;;;;;;;;;;;20.00;59.42;100210.22;4337793;33;20321;-86
2022/10/25 11:10:19;;;;;;;;;;;;;;;19.98;59.79;100205.88;4340858;33;19979;-86
2022/10/25 11:13:03;;;;;;;;;;;;;;;20.24;58.81;100208.94;4340556;33;20750;-90
2022/10/25 11:15:33;;;;;;;;;;;;;;;20.07;60.33;100201.34;4335434;33;20006;-90
2022/10/25 11:18:02;;;;;;;;;;;;;;;20.57;57.80;100203.09;4340709;33;20344;-90
2022/10/25 11:20:36;;;;;;;;;;;;;;;20.46;58.08;100196.28;4322879;33;20012;-88
2022/10/25 11:23:15;;;;;;;;;;;;;;;20.70;58.40;100201.09;4338275;33;20324;-89
2022/10/25 11:25:47;;;;;;;;;;;;;;;20.75;56.85;100193.97;4312263;33;791724;-88
2022/10/25 11:28:13;;;;;;;;;;;;;;;20.83;56.45;100199.94;4331580;33;20030;-88
2022/10/25 11:30:59;;;;;;;;;;;;;;;20.89;55.49;100199.81;4336334;33;19983;-88
2022/10/25 11:33:38;;;;;;;;;;;;;;;20.83;56.06;100205.22;4341074;33;19994;-86
2022/10/25 11:36:11;;;;;;;;;;;;;;;20.89;56.14;100204.22;4328640;33;20066;-89
2022/10/25 11:38:51;;;;;;;;;;;;;;;21.04;56.12;100203.06;4328340;33;20010;-86
2022/10/25 11:41:29;;;;;;;;;;;;;;;21.34;55.20;100197.09;4339729;33;20002;-89
2022/10/25 11:44:00;;;;;;;;;;;;;;;21.48;53.32;100188.06;4334832;33;20318;-86
2022/10/25 11:46:45;;;;;;;;;;;;;;;21.46;53.52;100174.06;4326852;33;20309;-86
2022/10/25 11:49:24;;;;;;;;;;;;;;;21.55;53.42;100184.38;4335573;33;19997;-87
2022/10/25 11:52:14;;;;;;;;;;;;;;;21.78;51.49;100182.06;4332625;33;19987;-85
2022/10/25 11:54:59;;;;;;;;;;;;;;;21.69;52.21;100177.00;4331272;33;20036;-91
2022/10/25 11:57:44;;;;;;;;;;;;;;;21.68;50.60;100180.56;4325933;33;20018;-89
2022/10/25 12:00:37;;;;;;;;;;;;;;;22.08;48.27;100179.59;4336814;33;19998;-82
2022/10/25 12:03:26;;;;;;;;;;;;;;;22.11;48.39;100184.75;4339810;33;20051;-82
2022/10/25 12:06:05;;;;;;;;;;;;;;;21.99;47.76;100180.66;4337024;33;20079;-86
2022/10/25 12:08:45;;;;;;;;;;;;;;;22.08;47.48;100174.31;4332774;33;19988;-85
2022/10/25 12:11:17;;;;;;;;;;;;;;;22.11;48.42;100174.19;4327694;33;19991;-84
2022/10/25 12:13:47;;;;;;;;;;;;;;;22.20;47.97;100174.00;4339303;33;20313;-84
2022/10/25 12:16:15;;;;;;;;;;;;;;;22.31;46.71;100170.22;4340575;33;20005;-81
2022/10/25 12:18:47;;;;;;;;;;;;;;;22.33;46.05;100173.69;4338985;33;20380;-83
2022/10/25 12:21:17;;;;;;;;;;;;;;;22.19;46.92;100182.81;4324783;33;20337;-82
2022/10/25 12:23:48;;;;;;;;;;;;;;;22.25;47.00;100182.66;4326731;33;20002;-88
2022/10/25 12:26:23;;;;;;;;;;;;;;;22.21;46.52;100186.28;4320116;33;20105;-81
2022/10/25 12:28:50;;;;;;;;;;;;;;;22.16;46.51;100182.91;4335040;33;19987;-82
2022/10/25 12:31:25;;;;;;;;;;;;;;;22.17;46.37;100189.91;4323622;33;19995;-81
2022/10/25 12:33:54;;;;;;;;;;;;;;;22.11;46.87;100195.28;4340745;33;20002;-80
2022/10/25 12:36:27;;;;;;;;;;;;;;;22.21;46.45;100191.56;4337802;33;19984;-83
2022/10/25 12:38:57;;;;;;;;;;;;;;;22.28;45.78;100187.84;4327081;33;19995;-79
2022/10/25 12:41:25;;;;;;;;;;;;;;;22.27;46.66;100191.41;4338433;33;19997;-81
2022/10/25 12:43:58;;;;;;;;;;;;;;;22.37;46.75;100185.91;4339079;33;20337;-81
2022/10/25 12:46:47;;;;;;;;;;;;;;;22.38;46.65;100187.62;4324124;33;20348;-85
2022/10/25 12:49:18;;;;;;;;;;;;;;;22.27;47.73;100186.13;4350608;32;20003;-86
2022/10/25 12:51:53;;;;;;;;;;;;;;;22.37;46.89;100191.16;4326142;33;19991;-85
2022/10/25 12:54:39;;;;;;;;;;;;;;;22.37;47.57;100185.91;4337157;33;19987;-86